createdAt,value
2019-04-28T00:00:28.088Z,8.3
2019-04-28T00:01:18.161Z,8.3
2019-04-28T00:02:07.656Z,8.3
2019-04-28T00:02:58.280Z,8.3
2019-04-28T00:03:48.345Z,8.3
2019-04-28T00:04:38.398Z,8.3
2019-04-28T00:05:28.458Z,8.3
2019-04-28T00:06:18.239Z,8.3
2019-04-28T00:07:08.327Z,8.3
2019-04-28T00:07:58.644Z,8.3
2019-04-28T00:08:48.697Z,8.3
2019-04-28T00:09:38.210Z,8.3
2019-04-28T00:10:28.545Z,8.3
2019-04-28T00:11:18.888Z,8.3
2019-04-28T00:12:08.955Z,8.3
2019-04-28T00:13:00.839Z,8.3
2019-04-28T00:13:48.527Z,8.3
2019-04-28T00:14:39.155Z,8.3
2019-04-28T00:15:30.372Z,8.3
2019-04-28T00:16:20.933Z,8.3
2019-04-28T00:17:11.014Z,8.3
2019-04-28T00:17:58.840Z,8.2
2019-04-28T00:18:50.890Z,8.2
2019-04-28T00:19:41.310Z,8.2
2019-04-28T00:20:31.567Z,8.3
2019-04-28T00:21:21.402Z,8.2
2019-04-28T00:22:11.515Z,8.2
2019-04-28T00:23:01.359Z,8.2
2019-04-28T00:23:51.694Z,8.2
2019-04-28T00:24:41.949Z,8.2
2019-04-28T00:25:31.683Z,8.2
2019-04-28T00:26:21.829Z,8.2
2019-04-28T00:27:12.149Z,8.2
2019-04-28T00:28:02.120Z,8.2
2019-04-28T00:28:51.963Z,8.2
2019-04-28T00:29:47.094Z,8.2
2019-04-28T00:30:32.182Z,8.2
2019-04-28T00:31:21.957Z,8.2
2019-04-28T00:32:12.669Z,8.2
2019-04-28T00:33:02.261Z,8.2
2019-04-28T00:33:52.819Z,8.2
2019-04-28T00:34:42.609Z,8.2
2019-04-28T00:35:35.709Z,8.2
2019-04-28T00:36:22.295Z,8.2
2019-04-28T00:37:12.558Z,8.2
2019-04-28T00:38:02.908Z,8.2
2019-04-28T00:38:52.908Z,8.2
2019-04-28T00:39:42.471Z,8.2
2019-04-28T00:40:33.286Z,8.2
2019-04-28T00:41:22.869Z,8.2
2019-04-28T00:42:12.956Z,8.1
2019-04-28T00:43:02.381Z,8.2
2019-04-28T00:43:53.401Z,8.2
2019-04-28T00:44:44.652Z,8.1
2019-04-28T00:45:32.888Z,8.1
2019-04-28T00:46:22.588Z,8.1
2019-04-28T00:47:12.345Z,8.1
2019-04-28T00:48:02.523Z,8.1
2019-04-28T00:48:52.388Z,8.1
2019-04-28T00:49:43.185Z,8.1
2019-04-28T00:50:32.526Z,8.1
2019-04-28T00:51:22.563Z,8.1
2019-04-28T00:52:12.648Z,8.1
2019-04-28T00:53:03.238Z,8.1
2019-04-28T00:53:52.177Z,8.1
2019-04-28T00:54:43.602Z,8.1
2019-04-28T00:55:33.250Z,8.1
2019-04-28T00:56:23.017Z,8.1
2019-04-28T00:57:12.500Z,8.1
2019-04-28T00:58:02.488Z,8.1
2019-04-28T00:58:54.088Z,8.1
2019-04-28T00:59:59.535Z,8.1
2019-04-28T03:06:45.770Z,7.3
2019-04-28T03:07:35.249Z,7.3
2019-04-28T03:08:25.576Z,7.3
2019-04-28T03:09:15.370Z,7.3
2019-04-28T03:10:05.978Z,7.3
2019-04-28T03:10:55.788Z,7.3
2019-04-28T03:11:46.092Z,7.3
2019-04-28T03:12:36.148Z,7.3
2019-04-28T03:13:26.217Z,7.3
2019-04-28T03:14:16.289Z,7.3
2019-04-28T03:15:06.356Z,7.3
2019-04-28T03:15:56.146Z,7.3
2019-04-28T03:16:46.535Z,7.3
2019-04-28T03:17:36.572Z,7.3
2019-04-28T03:18:26.316Z,7.3
2019-04-28T03:19:16.673Z,7.3
2019-04-28T03:20:06.729Z,7.3
2019-04-28T03:20:56.774Z,7.3
2019-04-28T03:21:46.849Z,7.3
2019-04-28T03:22:36.630Z,7.3
2019-04-28T03:23:26.692Z,7.3
2019-04-28T03:24:16.752Z,7.3
2019-04-28T03:25:07.104Z,7.3
2019-04-28T03:25:56.895Z,7.3
2019-04-28T03:26:47.241Z,7.2
2019-04-28T03:27:37.019Z,7.2
2019-04-28T03:28:27.093Z,7.2
2019-04-28T03:29:17.155Z,7.2
2019-04-28T03:30:07.480Z,7.2
2019-04-28T03:30:57.562Z,7.2
2019-04-28T03:32:54.820Z,7.2
2019-04-28T03:34:55.402Z,7.2
2019-04-28T03:35:44.383Z,7.2
2019-04-28T03:36:34.284Z,7.2
2019-04-28T03:37:25.005Z,7.2
2019-04-28T03:38:11.421Z,7.2
2019-04-28T03:39:02.176Z,7.2
2019-04-28T03:39:52.060Z,7.2
2019-04-28T03:40:42.128Z,7.2
2019-04-28T03:41:32.279Z,7.2
2019-04-28T03:42:22.864Z,7.2
2019-04-28T03:43:15.808Z,7.2
2019-04-28T03:44:01.513Z,7.2
2019-04-28T03:44:52.495Z,7.2
2019-04-28T03:45:42.298Z,7.2
2019-04-28T03:46:32.048Z,7.2
2019-04-28T03:47:22.636Z,7.2
2019-04-28T03:48:12.678Z,7.2
2019-04-28T03:49:02.077Z,7.2
2019-04-28T03:49:52.158Z,7.2
2019-04-28T03:50:42.762Z,7.2
2019-04-28T03:51:32.173Z,7.2
2019-04-28T03:52:22.371Z,7.1
2019-04-28T03:53:12.720Z,7.2
2019-04-28T03:54:04.235Z,7.2
2019-04-28T03:54:52.295Z,7.2
2019-04-28T03:55:42.930Z,7.2
2019-04-28T03:56:32.261Z,7.2
2019-04-28T03:57:22.963Z,7.2
2019-04-28T03:58:11.989Z,7.2
2019-04-28T03:59:02.051Z,7.2
2019-04-28T03:59:52.828Z,7.2
2019-04-28T04:00:42.440Z,7.2
2019-04-28T04:01:31.484Z,7.2
2019-04-28T04:02:24.743Z,7.3
2019-04-28T04:03:12.536Z,7.2
2019-04-28T04:04:04.787Z,7.2
2019-04-28T04:04:54.149Z,7.3
2019-04-28T04:05:42.297Z,7.3
2019-04-28T04:06:32.738Z,7.3
2019-04-28T04:07:23.324Z,7.3
2019-04-28T04:08:12.543Z,7.3
2019-04-28T04:09:01.996Z,7.3
2019-04-28T04:09:53.122Z,7.3
2019-04-28T04:10:41.756Z,7.3
2019-04-28T04:11:32.460Z,7.3
2019-04-28T04:12:22.719Z,7.3
2019-04-28T04:13:12.584Z,7.3
2019-04-28T04:14:03.019Z,7.3
2019-04-28T04:14:52.351Z,7.3
2019-04-28T04:15:42.882Z,7.3
2019-04-28T04:16:32.516Z,7.3
2019-04-28T04:17:22.475Z,7.4
2019-04-28T04:18:12.427Z,7.4
2019-04-28T04:19:02.510Z,7.4
2019-04-28T04:19:52.571Z,7.4
2019-04-28T04:20:42.723Z,7.4
2019-04-28T04:21:32.806Z,7.4
2019-04-28T04:22:22.917Z,7.4
2019-04-28T04:23:12.756Z,7.5
2019-04-28T04:24:02.855Z,7.5
2019-04-28T04:24:53.730Z,7.5
2019-04-28T04:25:43.441Z,7.5
2019-04-28T04:26:35.206Z,7.6
2019-04-28T04:27:23.117Z,7.6
2019-04-28T04:28:13.184Z,7.6
2019-04-28T04:29:02.994Z,7.6
2019-04-28T04:29:53.282Z,7.6
2019-04-28T04:30:43.390Z,7.7
2019-04-28T04:31:33.657Z,7.7
2019-04-28T04:32:33.839Z,7.7
2019-04-28T04:33:13.543Z,7.8
2019-04-28T04:34:04.658Z,7.8
2019-04-28T04:34:53.660Z,7.8
2019-04-28T04:35:45.295Z,7.9
2019-04-28T04:36:33.523Z,7.9
2019-04-28T04:37:23.564Z,7.9
2019-04-28T04:38:13.925Z,7.9
2019-04-28T04:39:03.442Z,8
2019-04-28T04:39:54.076Z,8.1
2019-04-28T04:40:44.085Z,8.1
2019-04-28T04:41:34.165Z,8.2
2019-04-28T04:42:23.943Z,8.2
2019-04-28T04:43:14.000Z,8.3
2019-04-28T04:44:04.405Z,8.3
2019-04-28T04:44:54.140Z,8.4
2019-04-28T04:45:44.486Z,8.4
2019-04-28T04:46:34.530Z,8.5
2019-04-28T04:47:24.579Z,8.6
2019-04-28T04:48:14.652Z,8.6
2019-04-28T04:49:04.725Z,8.7
2019-04-28T04:49:54.783Z,8.8
2019-04-28T04:50:44.567Z,8.8
2019-04-28T04:51:34.939Z,8.9
2019-04-28T04:52:24.710Z,8.9
2019-04-28T04:53:14.471Z,9.1
2019-04-28T04:54:04.818Z,9.1
2019-04-28T04:54:54.896Z,9.2
2019-04-28T04:55:44.926Z,9.3
2019-04-28T04:56:34.728Z,9.4
2019-04-28T04:57:25.325Z,9.4
2019-04-28T04:58:15.108Z,9.5
2019-04-28T04:59:05.180Z,9.6
2019-04-28T04:59:55.539Z,9.7
2019-04-28T05:00:45.623Z,9.8
2019-04-28T05:01:35.386Z,9.9
2019-04-28T05:02:34.214Z,10
2019-04-28T05:03:15.813Z,10.1
2019-04-28T05:04:05.827Z,10.3
2019-04-28T05:04:55.887Z,10.3
2019-04-28T05:05:45.948Z,10.4
2019-04-28T05:06:35.727Z,10.6
2019-04-28T05:07:26.068Z,10.7
2019-04-28T05:08:17.124Z,10.8
2019-04-28T05:09:05.662Z,10.9
2019-04-28T05:09:56.269Z,11.1
2019-04-28T05:10:46.324Z,11.3
2019-04-28T05:11:36.402Z,11.4
2019-04-28T05:12:25.911Z,11.5
2019-04-28T05:13:16.246Z,11.6
2019-04-28T05:14:12.463Z,11.8
2019-04-28T05:14:56.380Z,12
2019-04-28T05:15:45.879Z,12.1
2019-04-28T05:16:36.754Z,12.3
2019-04-28T05:17:26.836Z,12.4
2019-04-28T05:18:16.869Z,12.6
2019-04-28T05:19:06.667Z,12.8
2019-04-28T05:19:56.731Z,13
2019-04-28T05:21:37.147Z,13.3
2019-04-28T05:22:26.926Z,13.5
2019-04-28T05:23:17.246Z,13.7
2019-04-28T05:24:19.943Z,13.9
2019-04-28T05:25:47.233Z,14.3
2019-04-28T05:26:48.965Z,14.5
2019-04-28T05:28:19.644Z,14.9
2019-04-28T05:29:07.681Z,15.1
2019-04-28T05:30:06.023Z,15.4
2019-04-28T05:31:39.976Z,15.8
